Home > Products > Valid Products > SSM

000
SMZS01 NSTU 210600
SSMPPG
AAXX 21064
91765 32566 79903 10274 20239 30080 40083 52008 83171 333 56999
70003 555 92106=




000
SMZS01 NSTU 210600
SSMPPG
AAXX 21064
91765 32566 79903 10274 20239 30080 40083 52008 83171 333 56999
70003 555 92106=




000
SMZS01 NSTU 210003
SSMPPG
AAXX 21004
91765 12469 62509 10317 20246 30078 40081 55020 69934 82278 333
20253 56699 59022 70003 555 92100=




000
SMZS01 NSTU 201800
SSMPPG
AAXX 20184
91765 11569 79903 10257 20241 30086 40090 52010 69931 76062 81158
333 56999 70003 555 92018=




000
SMZS01 NSTU 201800
SSMPPG
AAXX 20184
91765 11569 79903 10257 20241 30086 40090 52010 69931 76062 81158
333 56999 70003 555 92018=




000
SMZS01 NSTU 201204
SSMPPG
AAXX 20124
91765 32466 59903 10253 20239 30088 40091 57014 82151 333 10315
5699/ 59021 555 92012=




000
SMZS01 NSTU 200553
SSMPPG
AAXX 20064
91765 32466 49903 10271 20245 30085 40088 52008 81171 333 56999
70000 555 92006=




000
SMZS01 NSTU 200031
SSMPPG
AAXX 20004
91765 12469 41007 10315 20260 30100 40103 56015 60064 82301 333
20257 562/9 58001 70056 555 92000=




000
SMZS01 NSTU 191800
SSMPPG
AAXX 19184
91765 32469 69903 10262 20245 30102 40105 51008 81172 333 56999
70625 555 91918=




000
SMZS01 NSTU 191800
SSMPPG
AAXX 19184
91765 32469 69903 10262 20245 30102 40105 51008 81172 333 56999
70625 555 91918=




000
SMZS01 NSTU 191154
SSMPPG
AAXX 19124
91765 32466 61308 10266 20245 30108 40112 57014 84450 333 10286
5639/ 58007 70627 555 91912=




000
SMZS01 NSTU 191154
SSMPPG
AAXX 19124
91765 32466 61308 10266 20245 30108 40112 57014 84450 333 10286
5639/ 58007 70627 555 91912=




000
SMZS01 NSTU 190554
SSMPPG
AAXX 19064
91765 11466 89902 10266 20248 30100 40103 51014 60061 70282 8482/
333 56999 70714 555 91906=




000
SMZS01 NSTU 182357
SSMPPG
AAXX 19004
91765 11467 89905 10257 20246 30098 40102 56017 60664 72998 8532/
333 20243 56999 59008 70658 555 91900=




000
SMZS01 NSTU 182357
SSMPPG
AAXX 19004
91765 11467 89905 10257 20246 30098 40102 56017 60664 72998 8532/
333 20243 56999 59008 70658 555 91900=




000
SMZS01 NSTU 181759
SSMPPG
AAXX 18184
91765 11469 79903 10276 20252 30098 40102 52014 69931 70282 84452
333 56999 70091 555 91818=




000
SMZS01 NSTU 181759
SSMPPG
AAXX 18184
91765 11469 79903 10276 20252 30098 40102 52014 69931 70282 84452
333 56999 70091 555 91818=




000
SMZS01 NSTU 181203
SSMPPG
AAXX 18124
91765 11466 89904 10268 20253 30102 40105 57025 60091 70282 8641/
333 10305 56999 59005 70089 555 91812=




000
SMZS01 NSTU 181203
SSMPPG
AAXX 18124
91765 11466 89904 10268 20253 30102 40105 57025 60091 70282 8641/
333 10305 56999 59005 70089 555 91812=




    US Dept of Commerce
    National Oceanic and Atmospheric Administration
    National Weather Service
    1325 East West Highway
    Silver Spring, MD 20910
    Page Author: NWS Internet Services Team
Disclaimer
Information Quality
Credits
Glossary
Privacy Policy
Freedom of Information Act (FOIA)
About Us
Career Opportunities